createdAt,value
2022-11-10T00:01:26.387Z,12.73
2022-11-10T00:04:19.549Z,11.60
2022-11-10T00:07:08.348Z,13.38
2022-11-10T00:10:01.297Z,14.05
2022-11-10T00:12:54.496Z,14.43
2022-11-10T00:16:01.283Z,14.07
2022-11-10T00:18:50.904Z,16.05
2022-11-10T00:21:39.305Z,18.83
2022-11-10T00:24:27.259Z,13.40
2022-11-10T00:27:20.052Z,14.32
2022-11-10T00:30:14.438Z,13.95
2022-11-10T00:33:06.945Z,15.65
2022-11-10T00:35:56.661Z,14.00
2022-11-10T00:38:45.140Z,15.20
2022-11-10T00:41:33.397Z,14.25
2022-11-10T00:44:21.336Z,15.15
2022-11-10T00:47:08.948Z,14.43
2022-11-10T00:49:57.686Z,13.45
2022-11-10T00:52:53.641Z,14.30
2022-11-10T00:55:43.239Z,16.27
2022-11-10T00:58:31.320Z,15.23
2022-11-10T01:01:21.014Z,15.90
2022-11-10T01:04:09.146Z,13.90
2022-11-10T01:06:56.945Z,15.60
2022-11-10T01:09:47.598Z,13.73
2022-11-10T01:12:35.329Z,16.65
2022-11-10T01:15:30.404Z,15.43
2022-11-10T01:18:18.336Z,13.98
2022-11-10T01:21:07.901Z,17.70
2022-11-10T01:24:00.735Z,15.63
2022-11-10T01:26:50.858Z,17.33
2022-11-10T01:29:38.848Z,16.77
2022-11-10T01:32:27.013Z,17.88
2022-11-10T01:35:15.300Z,17.85
2022-11-10T01:38:03.307Z,14.57
2022-11-10T01:41:01.508Z,14.75
2022-11-10T01:43:51.714Z,20.83
2022-11-10T01:46:42.576Z,16.60
2022-11-10T01:49:33.468Z,14.98
2022-11-10T01:52:22.414Z,17.02
2022-11-10T01:55:10.621Z,17.67
2022-11-10T01:58:03.596Z,18.67
2022-11-10T02:00:58.500Z,16.67
2022-11-10T02:03:51.842Z,14.98
2022-11-10T02:06:42.084Z,19.13
2022-11-10T02:09:30.038Z,19.58
2022-11-10T02:12:36.260Z,17.30
2022-11-10T02:15:48.858Z,19.13
2022-11-10T02:18:38.908Z,22.10
2022-11-10T02:21:28.763Z,17.17
2022-11-10T02:24:17.457Z,19.33
2022-11-10T02:27:05.301Z,18.50
2022-11-10T02:29:53.221Z,20.38
2022-11-10T02:32:51.200Z,19.02
2022-11-10T02:35:39.076Z,19.08
2022-11-10T02:38:28.991Z,20.15
2022-11-10T02:41:16.948Z,16.92
2022-11-10T02:44:10.701Z,18.13
2022-11-10T02:46:58.132Z,17.45
2022-11-10T02:49:46.827Z,18.83
2022-11-10T02:52:34.593Z,20.13
2022-11-10T02:55:29.396Z,19.88
2022-11-10T02:58:17.380Z,18.85
2022-11-10T03:04:01.159Z,21.25
2022-11-10T03:09:43.130Z,17.35
2022-11-10T03:12:34.910Z,17.63
2022-11-10T03:15:28.121Z,19.13
2022-11-10T03:18:21.213Z,17.35
2022-11-10T03:21:09.061Z,24.20
2022-11-10T03:24:01.951Z,20.70
2022-11-10T03:26:49.735Z,15.25
2022-11-10T03:29:42.329Z,18.38
2022-11-10T03:32:32.118Z,20.13
2022-11-10T03:35:25.267Z,18.48
2022-11-10T03:38:13.240Z,20.02
2022-11-10T03:41:18.644Z,17.92
2022-11-10T03:44:08.179Z,20.20
2022-11-10T03:46:57.807Z,17.02
2022-11-10T03:49:45.930Z,20.58
2022-11-10T03:52:34.042Z,21.55
2022-11-10T03:55:22.908Z,17.25
2022-11-10T03:58:20.632Z,19.02
2022-11-10T04:01:08.323Z,18.55
2022-11-10T04:03:58.838Z,18.10
2022-11-10T04:06:59.737Z,16.92
2022-11-10T04:09:47.828Z,21.55
2022-11-10T04:12:48.196Z,18.67
2022-11-10T04:15:45.443Z,16.35
2022-11-10T04:18:38.220Z,18.20
2022-11-10T04:24:23.979Z,17.20
2022-11-10T04:27:11.910Z,18.02
2022-11-10T04:30:05.792Z,17.23
2022-11-10T04:32:55.749Z,17.52
2022-11-10T04:35:43.516Z,19.92
2022-11-10T04:41:41.122Z,21.20
2022-11-10T04:44:29.245Z,19.33
2022-11-10T04:47:17.284Z,16.42
2022-11-10T04:50:13.085Z,17.50
2022-11-10T04:53:00.774Z,17.35
2022-11-10T04:55:50.769Z,17.77
2022-11-10T04:58:39.233Z,15.75
2022-11-10T05:01:31.883Z,18.42
2022-11-10T05:04:19.651Z,18.77
2022-11-10T05:07:13.187Z,16.83
2022-11-10T05:10:00.934Z,18.90
2022-11-10T05:12:53.137Z,18.33
2022-11-10T05:15:41.852Z,18.83
2022-11-10T05:18:29.972Z,18.58
2022-11-10T05:21:18.461Z,14.38
2022-11-10T05:24:06.675Z,18.38
2022-11-10T05:26:55.971Z,14.95
2022-11-10T05:29:45.809Z,16.05
2022-11-10T05:32:33.593Z,17.90
2022-11-10T05:38:09.826Z,17.30
2022-11-10T05:40:57.758Z,16.40
2022-11-10T05:43:45.664Z,18.50
2022-11-10T05:46:40.588Z,14.63
2022-11-10T05:49:29.054Z,16.90
2022-11-10T05:52:16.825Z,18.27
2022-11-10T05:55:04.731Z,15.20
2022-11-10T05:57:54.362Z,17.48
2022-11-10T06:00:41.969Z,16.02
2022-11-10T06:03:37.125Z,16.25
2022-11-10T06:06:25.212Z,15.88
2022-11-10T06:09:12.723Z,14.18
2022-11-10T06:12:03.168Z,16.50
2022-11-10T06:14:56.045Z,20.02
2022-11-10T06:17:43.923Z,18.52
2022-11-10T06:20:34.325Z,13.88
2022-11-10T06:23:22.551Z,18.77
2022-11-10T06:26:15.530Z,16.50
2022-11-10T06:29:08.787Z,16.27
2022-11-10T06:32:01.769Z,14.73
2022-11-10T06:34:49.466Z,17.42
2022-11-10T06:37:40.280Z,19.67
2022-11-10T06:40:27.905Z,18.63
2022-11-10T06:43:15.624Z,16.35
2022-11-10T06:46:03.349Z,18.77
2022-11-10T06:48:50.812Z,13.60
2022-11-10T06:51:39.259Z,17.58
2022-11-10T06:54:17.259Z,21.63
2022-11-10T06:57:05.303Z,21.30
2022-11-10T07:00:03.314Z,20.05
2022-11-10T07:02:39.235Z,14.10
2022-11-10T07:05:27.048Z,15.90
2022-11-10T07:08:17.482Z,15.65
2022-11-10T07:11:07.452Z,15.68
2022-11-10T07:13:55.648Z,17.67
2022-11-10T07:16:48.725Z,18.55
2022-11-10T07:19:38.048Z,15.85
2022-11-10T07:22:31.126Z,19.75
2022-11-10T07:25:18.954Z,17.05
2022-11-10T07:28:14.643Z,16.35
2022-11-10T07:31:04.123Z,18.48
2022-11-10T07:33:54.556Z,14.80
2022-11-10T07:36:43.386Z,13.20
2022-11-10T07:39:31.179Z,15.55
2022-11-10T07:42:18.943Z,18.92
2022-11-10T07:45:10.032Z,13.73
2022-11-10T07:48:01.285Z,15.18
2022-11-10T07:50:49.332Z,16.38
2022-11-10T07:53:38.511Z,16.00
2022-11-10T07:56:45.038Z,15.35
2022-11-10T07:59:33.005Z,14.63
2022-11-10T08:02:22.838Z,15.68
2022-11-10T08:05:03.581Z,14.13
2022-11-10T08:07:56.778Z,16.88
2022-11-10T08:10:45.023Z,15.20
2022-11-10T08:13:32.554Z,22.05
2022-11-10T08:16:20.566Z,14.27
2022-11-10T08:19:10.641Z,15.82
2022-11-10T08:21:58.687Z,18.17
2022-11-10T08:24:47.117Z,13.68
2022-11-10T08:27:35.141Z,18.25
2022-11-10T08:30:27.589Z,19.58
2022-11-10T08:33:18.004Z,15.85
2022-11-10T08:36:08.176Z,14.68
2022-11-10T08:38:58.044Z,17.70
2022-11-10T08:41:45.605Z,18.75
2022-11-10T08:44:36.318Z,17.05
2022-11-10T08:47:24.869Z,19.02
2022-11-10T08:50:13.121Z,18.05
2022-11-10T08:53:05.919Z,17.65
2022-11-10T08:56:01.601Z,18.73
2022-11-10T08:58:53.342Z,20.25
2022-11-10T09:01:41.264Z,18.30
2022-11-10T09:04:30.818Z,19.27
2022-11-10T09:07:18.750Z,19.35
2022-11-10T09:10:10.453Z,17.48
2022-11-10T09:13:02.022Z,23.60
2022-11-10T09:15:55.068Z,20.98
2022-11-10T09:18:43.138Z,18.40
2022-11-10T09:21:31.083Z,20.25
2022-11-10T09:24:19.989Z,19.00
2022-11-10T09:27:11.173Z,19.33
2022-11-10T09:30:04.656Z,18.88
2022-11-10T09:32:58.041Z,18.60
2022-11-10T09:35:45.890Z,17.10
2022-11-10T09:38:34.822Z,17.45
2022-11-10T09:41:22.987Z,25.05
2022-11-10T09:44:12.842Z,18.23
2022-11-10T09:47:03.142Z,20.30
2022-11-10T09:49:55.280Z,18.65
2022-11-10T09:52:44.095Z,20.02
2022-11-10T09:55:39.494Z,16.85
2022-11-10T09:58:33.995Z,16.02
2022-11-10T10:01:34.510Z,18.40
2022-11-10T10:04:35.228Z,19.83
2022-11-10T10:07:28.530Z,21.38
2022-11-10T10:10:22.359Z,18.17
2022-11-10T10:13:50.057Z,18.45
2022-11-10T10:16:48.461Z,23.00
2022-11-10T10:19:44.158Z,18.83
2022-11-10T10:23:06.168Z,19.13
2022-11-10T10:25:55.377Z,21.75
2022-11-10T10:28:47.156Z,21.92
2022-11-10T10:31:37.777Z,20.80
2022-11-10T10:34:31.357Z,24.25
2022-11-10T10:37:27.093Z,20.23
2022-11-10T10:40:21.348Z,21.92
2022-11-10T10:43:11.328Z,21.13
2022-11-10T10:46:08.681Z,19.77
2022-11-10T10:49:33.201Z,23.13
2022-11-10T10:52:25.003Z,19.80
2022-11-10T10:55:18.372Z,19.52
2022-11-10T10:58:20.413Z,19.55
2022-11-10T11:01:26.648Z,20.80
2022-11-10T11:04:30.424Z,20.27
2022-11-10T11:07:26.570Z,23.50
2022-11-10T11:10:22.680Z,22.92
2022-11-10T11:13:22.198Z,22.05
2022-11-10T11:16:12.109Z,29.50
2022-11-10T11:19:00.645Z,17.40
2022-11-10T11:22:04.040Z,19.27
2022-11-10T11:25:01.561Z,20.48
2022-11-10T11:28:03.255Z,18.42
2022-11-10T11:31:03.813Z,18.47
2022-11-10T11:34:03.112Z,23.02
2022-11-10T11:37:05.367Z,23.77
2022-11-10T11:39:56.062Z,30.00
2022-11-10T11:43:03.298Z,23.42
2022-11-10T11:45:58.614Z,17.13
2022-11-10T11:49:01.611Z,19.83
2022-11-10T11:51:55.593Z,19.83
2022-11-10T11:55:06.226Z,21.25
2022-11-10T11:58:23.172Z,18.92
2022-11-10T12:01:25.761Z,17.25
2022-11-10T12:04:39.712Z,19.05
2022-11-10T12:07:44.729Z,21.38
2022-11-10T12:10:45.709Z,22.08
2022-11-10T12:13:55.375Z,20.17
2022-11-10T12:16:49.909Z,18.00
2022-11-10T12:19:46.776Z,22.80
2022-11-10T12:22:45.280Z,21.88
2022-11-10T12:25:45.465Z,20.38
2022-11-10T12:28:36.505Z,21.90
2022-11-10T12:31:32.015Z,19.90
2022-11-10T12:34:30.300Z,21.52
2022-11-10T12:37:27.841Z,16.80
2022-11-10T12:40:18.451Z,16.33
2022-11-10T12:43:13.927Z,18.17
2022-11-10T12:46:07.618Z,18.58
2022-11-10T12:55:49.690Z,17.75
2022-11-10T12:58:37.620Z,22.52
2022-11-10T13:01:25.634Z,19.35
2022-11-10T13:04:16.600Z,22.98
2022-11-10T13:07:11.785Z,24.27
2022-11-10T13:10:18.037Z,20.45
2022-11-10T13:13:17.204Z,20.55
2022-11-10T13:16:05.362Z,24.00
2022-11-10T13:18:55.041Z,28.25
2022-11-10T13:22:10.797Z,24.67
2022-11-10T13:25:28.315Z,27.83
2022-11-10T13:28:53.063Z,25.05
2022-11-10T13:31:43.070Z,24.95
2022-11-10T13:34:38.576Z,20.65
2022-11-10T13:37:53.962Z,21.85
2022-11-10T13:40:43.959Z,25.20
2022-11-10T13:43:28.698Z,24.00
2022-11-10T13:46:17.990Z,24.10
2022-11-10T13:49:21.970Z,29.30
2022-11-10T13:52:17.898Z,23.20
2022-11-10T13:55:29.839Z,26.33
2022-11-10T13:58:26.131Z,22.98
2022-11-10T14:01:29.998Z,21.48
2022-11-10T14:04:42.177Z,24.77
2022-11-10T14:07:33.497Z,25.95
2022-11-10T14:10:36.053Z,22.90
2022-11-10T14:13:30.618Z,21.67
2022-11-10T14:16:20.944Z,21.83
2022-11-10T14:19:31.638Z,27.10
2022-11-10T14:22:28.317Z,20.40
2022-11-10T14:28:29.011Z,27.77
2022-11-10T14:31:24.344Z,25.17
2022-11-10T14:34:18.964Z,30.15
2022-11-10T14:37:19.593Z,23.17
2022-11-10T14:40:19.827Z,29.52
2022-11-10T14:43:08.006Z,29.35
2022-11-10T14:45:56.234Z,31.67
2022-11-10T14:48:43.817Z,31.33
2022-11-10T14:51:36.628Z,24.48
2022-11-10T14:54:28.021Z,26.05
2022-11-10T14:57:20.531Z,24.42
2022-11-10T15:00:10.820Z,24.38
2022-11-10T15:03:00.153Z,28.10
2022-11-10T15:05:50.380Z,25.55
2022-11-10T15:08:41.590Z,24.48
2022-11-10T15:14:39.194Z,24.80
2022-11-10T15:17:46.434Z,22.50
2022-11-10T15:20:39.826Z,28.02
2022-11-10T15:23:36.097Z,25.60
2022-11-10T15:26:28.687Z,27.52
2022-11-10T15:29:27.850Z,27.33
2022-11-10T15:32:21.693Z,25.45
2022-11-10T15:35:30.291Z,27.63
2022-11-10T15:38:29.847Z,29.67
2022-11-10T15:41:27.476Z,28.17
2022-11-10T15:44:21.503Z,25.98
2022-11-10T15:47:14.665Z,26.77
2022-11-10T15:50:03.162Z,31.02
2022-11-10T15:52:51.220Z,27.55
2022-11-10T15:55:39.518Z,28.08
2022-11-10T15:58:37.708Z,29.45
2022-11-10T16:01:27.834Z,28.40
2022-11-10T16:04:26.158Z,29.27
2022-11-10T16:07:14.216Z,27.98
2022-11-10T16:10:07.206Z,32.20
2022-11-10T16:12:55.599Z,29.73
2022-11-10T16:15:49.060Z,29.40
2022-11-10T16:18:43.692Z,31.25
2022-11-10T16:21:31.895Z,30.08
2022-11-10T16:24:20.259Z,30.33
2022-11-10T16:27:09.844Z,32.42
2022-11-10T16:29:57.889Z,31.63
2022-11-10T16:32:57.304Z,32.92
2022-11-10T16:35:50.516Z,31.20
2022-11-10T16:38:38.556Z,30.50
2022-11-10T16:41:26.893Z,30.80
2022-11-10T16:44:02.271Z,31.15
2022-11-10T16:46:56.886Z,29.42
2022-11-10T16:49:48.727Z,30.52
2022-11-10T16:52:38.653Z,29.92
2022-11-10T16:55:26.397Z,29.75
2022-11-10T16:58:14.147Z,29.45
2022-11-10T17:01:09.921Z,29.65
2022-11-10T17:04:01.408Z,30.88
2022-11-10T17:06:49.491Z,28.05
2022-11-10T17:09:44.648Z,29.25
2022-11-10T17:12:20.285Z,32.58
2022-11-10T17:15:09.602Z,32.55
2022-11-10T17:18:05.676Z,29.73
2022-11-10T17:20:55.269Z,27.42
2022-11-10T17:23:43.228Z,31.25
2022-11-10T17:26:34.193Z,35.33
2022-11-10T17:29:29.293Z,27.63
2022-11-10T17:32:24.221Z,30.25
2022-11-10T17:35:19.935Z,30.85
2022-11-10T17:38:11.427Z,35.45
2022-11-10T17:44:23.699Z,27.98
2022-11-10T17:47:11.912Z,26.67
2022-11-10T17:50:00.140Z,29.13
2022-11-10T17:52:54.409Z,25.65
2022-11-10T17:55:42.279Z,28.63
2022-11-10T17:58:35.350Z,30.00
2022-11-10T18:01:26.049Z,28.75
2022-11-10T18:04:19.896Z,27.30
2022-11-10T18:07:07.519Z,30.75
2022-11-10T18:09:55.113Z,25.55
2022-11-10T18:12:43.103Z,30.80
2022-11-10T18:15:31.562Z,31.17
2022-11-10T18:18:20.897Z,27.83
2022-11-10T18:21:14.433Z,24.60
2022-11-10T18:24:02.659Z,24.98
2022-11-10T18:26:50.755Z,25.98
2022-11-10T18:29:38.733Z,28.67
2022-11-10T18:32:27.024Z,34.70
2022-11-10T18:35:17.583Z,33.53
2022-11-10T18:38:05.859Z,32.80
2022-11-10T18:40:55.727Z,26.33
2022-11-10T18:43:48.816Z,30.45
2022-11-10T18:46:36.749Z,37.35
2022-11-10T18:49:24.569Z,31.85
2022-11-10T18:52:14.540Z,26.70
2022-11-10T18:55:02.838Z,31.52
2022-11-10T18:57:55.705Z,29.67
2022-11-10T19:00:44.007Z,31.65
2022-11-10T19:03:32.430Z,29.17
2022-11-10T19:06:20.473Z,31.75
2022-11-10T19:09:10.960Z,31.08
2022-11-10T19:11:47.033Z,33.60
2022-11-10T19:14:34.953Z,34.28
2022-11-10T19:17:23.033Z,30.25
2022-11-10T19:20:14.380Z,32.72
2022-11-10T19:23:02.533Z,31.92
2022-11-10T19:26:01.227Z,35.20
2022-11-10T19:28:49.648Z,33.85
2022-11-10T19:31:37.990Z,32.72
2022-11-10T19:34:25.810Z,31.77
2022-11-10T19:37:13.988Z,36.15
2022-11-10T19:40:13.204Z,27.25
2022-11-10T19:43:06.169Z,42.13
2022-11-10T19:46:07.786Z,36.13
2022-11-10T19:48:56.631Z,28.70
2022-11-10T19:51:44.620Z,36.38
2022-11-10T19:54:32.822Z,34.88
2022-11-10T19:57:20.792Z,37.00
2022-11-10T20:00:12.938Z,34.40
2022-11-10T20:03:01.037Z,36.22
2022-11-10T20:06:00.607Z,39.80
2022-11-10T20:08:49.616Z,33.38
2022-11-10T20:11:37.747Z,32.03
2022-11-10T20:14:34.051Z,33.75
2022-11-10T20:17:23.710Z,35.17
2022-11-10T20:20:12.172Z,28.60
2022-11-10T20:23:03.572Z,33.25
2022-11-10T20:25:56.402Z,30.65
2022-11-10T20:28:45.460Z,30.52
2022-11-10T20:31:33.412Z,33.33
2022-11-10T20:34:23.388Z,39.88
2022-11-10T20:37:21.550Z,30.02
2022-11-10T20:40:42.317Z,31.27
2022-11-10T20:43:25.476Z,31.27
2022-11-10T20:46:33.424Z,35.70
2022-11-10T20:49:26.189Z,28.27
2022-11-10T20:52:13.865Z,32.97
2022-11-10T20:55:02.880Z,32.80
2022-11-10T20:58:03.355Z,35.03
2022-11-10T21:00:52.261Z,36.55
2022-11-10T21:03:45.308Z,36.80
2022-11-10T21:06:36.600Z,32.50
2022-11-10T21:09:24.704Z,35.80
2022-11-10T21:12:13.006Z,29.88
2022-11-10T21:15:01.467Z,33.33
2022-11-10T21:17:49.644Z,34.00
2022-11-10T21:20:37.617Z,34.60
2022-11-10T21:23:27.431Z,27.38
2022-11-10T21:26:15.327Z,28.30
2022-11-10T21:29:04.048Z,29.63
2022-11-10T21:31:53.256Z,26.02
2022-11-10T21:34:41.219Z,27.27
2022-11-10T21:37:28.934Z,29.60
2022-11-10T21:40:19.104Z,34.15
2022-11-10T21:43:06.702Z,25.80
2022-11-10T21:45:58.324Z,28.13
2022-11-10T21:48:46.633Z,29.20
2022-11-10T21:51:40.109Z,32.13
2022-11-10T21:54:28.182Z,36.25
2022-11-10T21:57:19.424Z,27.85
2022-11-10T22:00:08.710Z,29.90
2022-11-10T22:03:03.176Z,28.30
2022-11-10T22:05:50.824Z,27.27
2022-11-10T22:08:40.655Z,23.88
2022-11-10T22:11:41.543Z,28.75
2022-11-10T22:14:45.737Z,27.20
2022-11-10T22:17:48.674Z,29.30
2022-11-10T22:20:41.836Z,26.35
2022-11-10T22:23:42.817Z,31.15
2022-11-10T22:26:30.974Z,28.48
2022-11-10T22:29:19.166Z,24.63
2022-11-10T22:32:09.419Z,27.92
2022-11-10T22:35:02.240Z,28.80
2022-11-10T22:37:50.136Z,27.98
2022-11-10T22:40:56.835Z,28.65
2022-11-10T22:43:57.647Z,29.70
2022-11-10T22:46:47.754Z,32.22
2022-11-10T22:49:37.515Z,31.85
2022-11-10T22:52:25.341Z,30.58
2022-11-10T22:55:01.092Z,33.28
2022-11-10T22:57:49.185Z,35.65
2022-11-10T23:00:37.260Z,33.60
2022-11-10T23:03:24.919Z,33.35
2022-11-10T23:06:25.588Z,32.28
2022-11-10T23:09:13.683Z,28.77
2022-11-10T23:12:07.672Z,31.17
2022-11-10T23:14:55.419Z,35.05
2022-11-10T23:17:43.300Z,30.02
2022-11-10T23:20:30.907Z,33.20
2022-11-10T23:23:26.297Z,30.60
2022-11-10T23:26:16.132Z,30.80
2022-11-10T23:29:09.292Z,31.65
2022-11-10T23:31:57.181Z,33.83
2022-11-10T23:34:45.457Z,33.53
2022-11-10T23:37:34.303Z,37.53
2022-11-10T23:40:24.094Z,34.65
2022-11-10T23:43:11.587Z,36.03
2022-11-10T23:46:06.857Z,31.90
2022-11-10T23:48:55.067Z,36.17
2022-11-10T23:51:43.233Z,35.03
2022-11-10T23:54:31.093Z,34.95
2022-11-10T23:57:09.009Z,33.35
2022-11-10T23:59:56.666Z,31.13
